Terminal Aerodrome Forecast
Issued by NWS Denver/Boulder, CO

Home | Current Version | Previous Version | Text Only | Print | Product List | Glossary On
Versions: 1 2 3 4 5 6 7 8 9 10 11 12 13 14 15 16 17 18 19 20 21 22 23 24 25 26 27 28 29 30 31 32 33 34 35 36 37 38 39 40 41 42 43 44 45 46 47 48 49 50
000
FTUS45 KBOU 231137
TAFDEN
TAF
KDEN 231137Z 2312/2418 24010KT P6SM BKN220
     FM231700 15006KT P6SM FEW150 BKN220
     FM232300 28011KT P6SM SCT120 BKN200
     FM240100 15007KT P6SM BKN110 BKN200
     FM240400 21011KT P6SM BKN250
     FM240900 35012KT P6SM FEW140 BKN220
     FM241300 VRB05KT P6SM FEW120 SCT220=

USA.gov is the U.S. government's official web portal to all federal, state and local government web resources and services.